createdAt,value
2022-08-03T00:02:17.745Z,21.38
2022-08-03T00:04:45.399Z,21.34
2022-08-03T00:07:12.929Z,21.28
2022-08-03T00:09:40.434Z,21.25
2022-08-03T00:12:08.140Z,21.22
2022-08-03T00:14:35.750Z,21.13
2022-08-03T00:17:03.486Z,21.06
2022-08-03T00:19:31.330Z,21.09
2022-08-03T00:21:58.934Z,21.10
2022-08-03T00:24:26.531Z,21.06
2022-08-03T00:26:54.182Z,21.05
2022-08-03T00:29:21.766Z,20.99
2022-08-03T00:31:52.856Z,20.93
2022-08-03T00:34:57.927Z,20.90
2022-08-03T00:37:14.698Z,20.84
2022-08-03T00:39:45.928Z,20.77
2022-08-03T00:42:14.132Z,20.67
2022-08-03T00:44:43.763Z,20.58
2022-08-03T00:47:11.875Z,20.53
2022-08-03T00:49:40.878Z,20.52
2022-08-03T00:52:13.629Z,20.45
2022-08-03T00:54:41.281Z,20.47
2022-08-03T00:57:08.947Z,20.49
2022-08-03T00:59:38.213Z,20.45
2022-08-03T01:02:06.545Z,20.48
2022-08-03T01:04:34.001Z,20.49
2022-08-03T01:07:17.851Z,20.48
2022-08-03T01:09:58.042Z,20.51
2022-08-03T01:12:53.833Z,20.29
2022-08-03T01:15:49.406Z,20.21
2022-08-03T01:18:43.379Z,20.22
2022-08-03T01:21:17.174Z,20.26
2022-08-03T01:23:47.642Z,20.19
2022-08-03T01:26:55.733Z,20.18
2022-08-03T01:29:47.380Z,20.16
2022-08-03T01:33:02.405Z,20.09
2022-08-03T01:35:38.618Z,20.04
2022-08-03T01:38:34.720Z,20.04
2022-08-03T01:41:12.157Z,20.00
2022-08-03T01:43:55.339Z,19.97
2022-08-03T01:46:33.523Z,19.97
2022-08-03T01:49:09.306Z,19.94
2022-08-03T01:52:02.722Z,19.97
2022-08-03T01:54:31.264Z,19.94
2022-08-03T01:56:59.934Z,19.93
2022-08-03T01:59:29.052Z,19.96
2022-08-03T02:02:25.197Z,19.89
2022-08-03T02:04:47.335Z,19.86
2022-08-03T02:07:16.408Z,19.82
2022-08-03T02:09:49.892Z,19.75
2022-08-03T02:12:18.991Z,19.69
2022-08-03T02:14:48.831Z,19.61
2022-08-03T02:17:16.772Z,19.58
2022-08-03T02:19:45.388Z,19.58
2022-08-03T02:22:14.498Z,19.56
2022-08-03T02:24:42.353Z,19.59
2022-08-03T02:27:23.018Z,19.53
2022-08-03T02:29:58.885Z,19.51
2022-08-03T02:32:31.681Z,19.47
2022-08-03T02:35:01.024Z,19.45
2022-08-03T02:37:32.294Z,19.43
2022-08-03T02:40:04.474Z,19.40
2022-08-03T02:42:35.545Z,19.38
2022-08-03T02:45:08.303Z,19.39
2022-08-03T02:47:53.233Z,19.36
2022-08-03T02:50:23.704Z,19.23
2022-08-03T02:52:53.189Z,19.14
2022-08-03T02:55:22.875Z,19.12
2022-08-03T02:57:51.725Z,19.10
2022-08-03T03:00:27.853Z,19.03
2022-08-03T03:02:58.415Z,19.00
2022-08-03T03:05:53.052Z,19.03
2022-08-03T03:08:18.810Z,19.00
2022-08-03T03:10:48.977Z,19.01
2022-08-03T03:13:22.410Z,19.04
2022-08-03T03:15:52.111Z,19.06
2022-08-03T03:18:22.803Z,19.06
2022-08-03T03:20:52.968Z,19.00
2022-08-03T03:23:23.343Z,19.01
2022-08-03T03:25:52.361Z,18.94
2022-08-03T03:28:20.796Z,18.89
2022-08-03T03:30:52.715Z,18.83
2022-08-03T03:33:21.791Z,18.83
2022-08-03T03:35:50.447Z,18.83
2022-08-03T03:38:18.706Z,18.82
2022-08-03T03:40:46.363Z,18.80
2022-08-03T03:43:14.173Z,18.88
2022-08-03T03:45:43.025Z,18.90
2022-08-03T03:48:10.856Z,18.97
2022-08-03T03:50:41.666Z,19.05
2022-08-03T03:53:13.392Z,19.09
2022-08-03T03:55:59.111Z,19.11
2022-08-03T03:58:30.546Z,19.17
2022-08-03T04:00:58.012Z,19.22
2022-08-03T04:03:25.543Z,19.18
2022-08-03T04:06:11.633Z,19.10
2022-08-03T04:08:59.118Z,19.13
2022-08-03T04:11:39.408Z,19.21
2022-08-03T04:14:20.850Z,19.21
2022-08-03T04:16:59.973Z,19.25
2022-08-03T04:19:35.785Z,19.30
2022-08-03T04:22:09.781Z,19.25
2022-08-03T04:24:51.462Z,19.21
2022-08-03T04:27:25.734Z,19.26
2022-08-03T04:29:56.904Z,19.30
2022-08-03T04:32:28.611Z,19.32
2022-08-03T04:34:56.172Z,19.39
2022-08-03T04:37:47.946Z,19.43
2022-08-03T04:40:22.847Z,19.52
2022-08-03T04:42:52.005Z,19.66
2022-08-03T04:45:21.251Z,19.74
2022-08-03T04:47:49.020Z,19.83
2022-08-03T04:50:21.192Z,19.87
2022-08-03T04:53:05.896Z,19.85
2022-08-03T04:55:36.487Z,19.67
2022-08-03T04:58:06.280Z,19.69
2022-08-03T05:00:33.781Z,19.70
2022-08-03T05:03:01.300Z,19.76
2022-08-03T05:05:34.924Z,19.75
2022-08-03T05:08:16.871Z,19.88
2022-08-03T05:10:59.177Z,19.93
2022-08-03T05:13:27.513Z,20.00
2022-08-03T05:15:55.018Z,20.06
2022-08-03T05:18:22.597Z,20.09
2022-08-03T05:20:50.145Z,20.16
2022-08-03T05:23:18.042Z,20.21
2022-08-03T05:25:50.198Z,20.29
2022-08-03T05:28:18.000Z,20.37
2022-08-03T05:30:45.395Z,20.51
2022-08-03T05:33:12.815Z,20.54
2022-08-03T05:35:55.699Z,20.80
2022-08-03T05:38:34.287Z,21.13
2022-08-03T05:41:21.813Z,21.49
2022-08-03T05:43:53.689Z,22.06
2022-08-03T05:46:24.957Z,22.59
2022-08-03T05:48:52.582Z,23.13
2022-08-03T05:51:20.340Z,23.56
2022-08-03T05:53:47.971Z,23.60
2022-08-03T05:56:16.563Z,23.68
2022-08-03T05:58:47.925Z,23.63
2022-08-03T06:01:16.852Z,23.63
2022-08-03T06:03:45.058Z,23.63
2022-08-03T06:06:12.585Z,23.59
2022-08-03T06:08:41.165Z,23.52
2022-08-03T06:11:09.809Z,23.53
2022-08-03T06:13:37.550Z,23.59
2022-08-03T06:16:05.375Z,23.61
2022-08-03T06:18:32.849Z,23.65
2022-08-03T06:21:14.814Z,23.56
2022-08-03T06:23:54.178Z,23.62
2022-08-03T06:26:23.428Z,23.66
2022-08-03T06:28:52.387Z,23.56
2022-08-03T06:31:24.193Z,23.67
2022-08-03T06:34:33.834Z,23.62
2022-08-03T06:36:39.403Z,23.71
2022-08-03T06:39:08.364Z,23.83
2022-08-03T06:41:38.079Z,23.94
2022-08-03T06:44:12.594Z,24.12
2022-08-03T06:46:40.493Z,24.19
2022-08-03T06:49:08.057Z,24.37
2022-08-03T06:52:03.625Z,24.37
2022-08-03T06:54:22.379Z,24.61
2022-08-03T06:56:49.439Z,24.74
2022-08-03T07:00:07.822Z,24.85
2022-08-03T07:02:04.572Z,24.97
2022-08-03T07:04:31.560Z,25.02
2022-08-03T07:06:58.685Z,25.10
2022-08-03T07:09:26.725Z,25.09
2022-08-03T07:11:55.055Z,25.13
2022-08-03T07:14:22.370Z,25.19
2022-08-03T07:16:49.396Z,25.17
2022-08-03T07:19:16.581Z,25.33
2022-08-03T07:21:43.664Z,25.33
2022-08-03T07:24:10.670Z,25.31
2022-08-03T07:26:38.171Z,25.46
2022-08-03T07:29:11.909Z,25.61
2022-08-03T07:31:42.873Z,25.75
2022-08-03T07:34:10.279Z,25.83
2022-08-03T07:36:37.843Z,25.85
2022-08-03T07:39:16.506Z,26.07
2022-08-03T07:41:46.255Z,26.29
2022-08-03T07:44:13.982Z,26.52
2022-08-03T07:46:41.413Z,26.69
2022-08-03T07:49:08.930Z,26.73
2022-08-03T07:51:36.612Z,26.90
2022-08-03T07:54:04.245Z,27.16
2022-08-03T07:56:32.222Z,27.47
2022-08-03T07:58:59.817Z,27.99
2022-08-03T08:01:27.325Z,28.29
2022-08-03T08:03:54.845Z,28.70
2022-08-03T08:06:22.876Z,29.11
2022-08-03T08:08:50.367Z,29.52
2022-08-03T08:11:18.530Z,29.70
2022-08-03T08:13:45.919Z,30.09
2022-08-03T08:16:13.333Z,30.30
2022-08-03T08:18:40.695Z,30.56
2022-08-03T08:21:08.771Z,30.87
2022-08-03T08:23:43.493Z,31.13
2022-08-03T08:26:12.752Z,31.30
2022-08-03T08:28:40.363Z,31.75
2022-08-03T08:31:07.845Z,32.35
2022-08-03T08:34:03.012Z,32.65
2022-08-03T08:36:24.132Z,32.92
2022-08-03T08:38:51.563Z,33.34
2022-08-03T08:41:19.401Z,33.36
2022-08-03T08:43:46.922Z,33.35
2022-08-03T08:46:23.061Z,33.49
2022-08-03T08:48:52.649Z,32.96
2022-08-03T08:51:22.198Z,33.01
2022-08-03T08:53:53.765Z,32.85
2022-08-03T08:56:25.711Z,33.55
2022-08-03T08:58:58.887Z,34.24
2022-08-03T09:01:26.618Z,34.99
2022-08-03T09:03:54.423Z,35.56
2022-08-03T09:06:23.174Z,35.75
2022-08-03T09:08:50.626Z,35.28
2022-08-03T09:11:52.489Z,34.94
2022-08-03T09:14:11.311Z,35.88
2022-08-03T09:17:03.069Z,36.68
2022-08-03T09:19:32.922Z,36.76
2022-08-03T09:22:14.174Z,36.62
2022-08-03T09:25:23.957Z,34.89
2022-08-03T09:27:52.182Z,35.84
2022-08-03T09:30:34.437Z,36.37
2022-08-03T09:33:10.382Z,37.06
2022-08-03T09:35:57.478Z,37.23
2022-08-03T09:38:28.925Z,37.60
2022-08-03T09:41:00.201Z,37.15
2022-08-03T09:43:28.731Z,36.08
2022-08-03T09:46:07.626Z,36.61
2022-08-03T09:48:36.756Z,37.56
2022-08-03T09:51:13.252Z,38.35
2022-08-03T09:53:58.932Z,38.81
2022-08-03T09:56:47.681Z,38.87
2022-08-03T09:59:28.158Z,38.39
2022-08-03T10:01:57.378Z,38.18
2022-08-03T10:04:25.769Z,38.42
2022-08-03T10:07:09.471Z,38.89
2022-08-03T10:09:54.924Z,38.34
2022-08-03T10:12:23.237Z,38.45
2022-08-03T10:14:52.601Z,37.30
2022-08-03T10:17:21.468Z,38.19
2022-08-03T10:19:49.854Z,38.23
2022-08-03T10:22:22.226Z,36.72
2022-08-03T10:25:09.927Z,36.04
2022-08-03T10:27:51.599Z,37.24
2022-08-03T10:30:19.134Z,37.53
2022-08-03T10:32:59.052Z,37.22
2022-08-03T10:35:27.044Z,37.50
2022-08-03T10:38:03.168Z,38.39
2022-08-03T10:40:47.944Z,38.33
2022-08-03T10:43:23.076Z,38.01
2022-08-03T10:45:51.148Z,38.30
2022-08-03T10:48:19.823Z,38.90
2022-08-03T10:50:49.589Z,39.41
2022-08-03T10:53:33.671Z,40.02
2022-08-03T10:56:21.658Z,40.29
2022-08-03T10:59:08.948Z,40.57
2022-08-03T11:01:54.219Z,40.78
2022-08-03T11:04:29.207Z,40.78
2022-08-03T11:07:19.422Z,39.68
2022-08-03T11:09:51.131Z,38.56
2022-08-03T11:12:31.332Z,37.63
2022-08-03T11:15:02.174Z,37.75
2022-08-03T11:17:29.870Z,38.34
2022-08-03T11:19:58.619Z,38.94
2022-08-03T11:22:46.439Z,38.37
2022-08-03T11:25:53.779Z,38.04
2022-08-03T11:28:28.540Z,38.85
2022-08-03T11:30:56.135Z,38.12
2022-08-03T11:33:32.984Z,38.04
2022-08-03T11:36:02.457Z,38.52
2022-08-03T11:38:31.545Z,38.08
2022-08-03T11:40:59.165Z,37.96
2022-08-03T11:43:34.956Z,38.08
2022-08-03T11:46:06.530Z,38.22
2022-08-03T11:48:40.866Z,38.11
2022-08-03T11:51:21.460Z,38.55
2022-08-03T11:53:55.810Z,39.04
2022-08-03T11:56:23.557Z,39.24
2022-08-03T11:59:01.615Z,39.20
2022-08-03T12:01:41.801Z,37.97
2022-08-03T12:04:10.735Z,37.86
2022-08-03T12:06:56.348Z,37.47
2022-08-03T12:09:23.821Z,37.49
2022-08-03T12:12:00.591Z,36.98
2022-08-03T12:14:50.374Z,36.82
2022-08-03T12:17:18.082Z,34.78
2022-08-03T12:19:46.022Z,34.80
2022-08-03T12:22:13.679Z,34.54
2022-08-03T12:24:47.223Z,33.96
2022-08-03T12:27:25.198Z,34.38
2022-08-03T12:29:58.308Z,34.61
2022-08-03T12:32:27.658Z,34.61
2022-08-03T12:35:00.258Z,34.54
2022-08-03T12:37:28.611Z,34.58
2022-08-03T12:40:07.797Z,34.58
2022-08-03T12:42:40.827Z,34.49
2022-08-03T12:45:28.707Z,34.48
2022-08-03T12:47:58.311Z,34.22
2022-08-03T12:50:32.160Z,34.33
2022-08-03T12:53:01.552Z,34.52
2022-08-03T12:55:57.357Z,34.55
2022-08-03T12:58:33.946Z,34.59
2022-08-03T13:01:05.275Z,34.79
2022-08-03T13:03:49.664Z,34.84
2022-08-03T13:06:20.151Z,34.80
2022-08-03T13:08:48.401Z,34.69
2022-08-03T13:11:47.614Z,34.64
2022-08-03T13:14:19.757Z,34.49
2022-08-03T13:16:49.272Z,34.67
2022-08-03T13:19:16.901Z,34.72
2022-08-03T13:22:01.977Z,34.78
2022-08-03T13:24:33.214Z,34.88
2022-08-03T13:27:02.809Z,34.78
2022-08-03T13:29:50.286Z,34.64
2022-08-03T13:32:17.817Z,34.72
2022-08-03T13:34:45.277Z,34.71
2022-08-03T13:37:13.765Z,34.73
2022-08-03T13:39:58.175Z,34.61
2022-08-03T13:42:28.592Z,34.44
2022-08-03T13:44:56.063Z,34.57
2022-08-03T13:47:23.562Z,34.63
2022-08-03T13:50:00.174Z,34.74
2022-08-03T13:52:29.273Z,34.44
2022-08-03T13:54:56.760Z,34.36
2022-08-03T13:58:03.797Z,34.63
2022-08-03T14:00:12.209Z,34.64
2022-08-03T14:02:39.759Z,34.57
2022-08-03T14:05:08.182Z,34.54
2022-08-03T14:07:35.636Z,34.54
2022-08-03T14:10:03.415Z,34.57
2022-08-03T14:12:31.998Z,34.30
2022-08-03T14:15:01.547Z,34.33
2022-08-03T14:17:42.250Z,34.40
2022-08-03T14:20:36.918Z,34.47
2022-08-03T14:23:04.454Z,34.48
2022-08-03T14:25:50.062Z,34.52
2022-08-03T14:28:20.424Z,34.56
2022-08-03T14:30:48.603Z,34.47
2022-08-03T14:33:16.558Z,34.55
2022-08-03T14:35:44.135Z,34.60
2022-08-03T14:38:11.799Z,34.55
2022-08-03T14:40:39.303Z,34.50
2022-08-03T14:43:06.999Z,34.43
2022-08-03T14:45:34.581Z,34.49
2022-08-03T14:50:28.430Z,34.46
2022-08-03T14:50:52.790Z,34.53
2022-08-03T14:53:21.107Z,34.58
2022-08-03T14:55:51.555Z,34.64
2022-08-03T14:58:25.290Z,34.50
2022-08-03T15:00:54.769Z,34.29
2022-08-03T15:03:26.083Z,34.27
2022-08-03T15:05:55.578Z,34.14
2022-08-03T15:08:24.502Z,34.16
2022-08-03T15:10:52.704Z,34.35
2022-08-03T15:13:20.768Z,34.42
2022-08-03T15:15:49.823Z,34.43
2022-08-03T15:18:17.563Z,34.54
2022-08-03T15:20:46.668Z,34.55
2022-08-03T15:23:15.673Z,34.62
2022-08-03T15:26:28.085Z,34.58
2022-08-03T15:28:32.771Z,34.59
2022-08-03T15:31:01.290Z,34.68
2022-08-03T15:33:29.492Z,34.58
2022-08-03T15:35:57.641Z,34.62
2022-08-03T15:38:26.262Z,34.67
2022-08-03T15:40:54.962Z,34.70
2022-08-03T15:43:23.593Z,34.71
2022-08-03T15:46:19.149Z,34.72
2022-08-03T15:48:39.455Z,34.69
2022-08-03T15:51:07.598Z,34.71
2022-08-03T15:53:35.437Z,34.79
2022-08-03T15:56:09.705Z,34.77
2022-08-03T15:59:04.294Z,34.70
2022-08-03T16:01:27.337Z,34.66
2022-08-03T16:03:54.842Z,34.69
2022-08-03T16:06:34.968Z,34.55
2022-08-03T16:09:22.881Z,34.53
2022-08-03T16:11:52.353Z,34.54
2022-08-03T16:14:33.335Z,34.46
2022-08-03T16:17:03.790Z,34.34
2022-08-03T16:19:31.300Z,34.24
2022-08-03T16:22:01.134Z,34.23
2022-08-03T16:24:28.845Z,34.28
2022-08-03T16:27:00.546Z,34.28
2022-08-03T16:29:28.607Z,34.27
2022-08-03T16:31:56.034Z,34.01
2022-08-03T16:34:24.141Z,34.20
2022-08-03T16:36:52.477Z,34.21
2022-08-03T16:39:19.928Z,34.21
2022-08-03T16:41:54.315Z,34.10
2022-08-03T16:44:30.686Z,34.05
2022-08-03T16:46:59.291Z,33.97
2022-08-03T16:49:53.182Z,33.90
2022-08-03T16:52:16.530Z,33.89
2022-08-03T16:54:52.663Z,33.84
2022-08-03T16:57:56.630Z,33.85
2022-08-03T17:00:33.701Z,33.82
2022-08-03T17:03:04.447Z,33.79
2022-08-03T17:05:47.125Z,33.76
2022-08-03T17:08:16.295Z,33.71
2022-08-03T17:10:46.575Z,33.68
2022-08-03T17:13:21.533Z,33.60
2022-08-03T17:15:57.680Z,33.58
2022-08-03T17:18:29.772Z,33.54
2022-08-03T17:20:59.205Z,33.51
2022-08-03T17:23:38.581Z,33.44
2022-08-03T17:26:20.601Z,33.38
2022-08-03T17:28:58.145Z,33.34
2022-08-03T17:31:31.771Z,33.30
2022-08-03T17:34:01.529Z,33.24
2022-08-03T17:37:00.862Z,33.19
2022-08-03T17:39:30.829Z,33.10
2022-08-03T17:42:29.110Z,33.00
2022-08-03T17:44:57.873Z,32.91
2022-08-03T17:47:29.382Z,32.84
2022-08-03T17:50:23.478Z,32.79
2022-08-03T17:53:07.050Z,32.73
2022-08-03T17:55:57.370Z,32.68
2022-08-03T17:58:55.158Z,32.54
2022-08-03T18:02:00.528Z,32.43
2022-08-03T18:04:41.253Z,32.34
2022-08-03T18:07:12.891Z,32.28
2022-08-03T18:10:03.527Z,32.21
2022-08-03T18:12:47.250Z,31.97
2022-08-03T18:15:31.937Z,32.04
2022-08-03T18:18:10.954Z,31.98
2022-08-03T18:20:41.917Z,31.94
2022-08-03T18:23:25.031Z,31.87
2022-08-03T18:26:01.713Z,31.71
2022-08-03T18:28:32.383Z,31.48
2022-08-03T18:31:05.607Z,31.07
2022-08-03T18:34:18.212Z,31.08
2022-08-03T18:36:29.922Z,30.83
2022-08-03T18:38:59.896Z,30.80
2022-08-03T18:41:33.029Z,30.70
2022-08-03T18:44:08.394Z,30.58
2022-08-03T18:47:16.317Z,30.50
2022-08-03T18:50:11.777Z,30.36
2022-08-03T18:52:58.055Z,30.30
2022-08-03T18:55:35.423Z,30.18
2022-08-03T18:58:06.282Z,30.07
2022-08-03T19:00:42.564Z,29.95
2022-08-03T19:03:24.779Z,29.81
2022-08-03T19:06:02.813Z,29.69
2022-08-03T19:08:49.492Z,29.63
2022-08-03T19:12:11.284Z,29.51
2022-08-03T19:14:35.264Z,29.45
2022-08-03T19:17:09.838Z,29.37
2022-08-03T19:19:44.543Z,29.22
2022-08-03T19:22:15.885Z,29.25
2022-08-03T19:24:46.640Z,29.20
2022-08-03T19:27:16.046Z,29.15
2022-08-03T19:29:58.764Z,29.15
2022-08-03T19:32:32.610Z,29.24
2022-08-03T19:35:02.086Z,29.22
2022-08-03T19:37:38.258Z,29.11
2022-08-03T19:40:10.236Z,28.94
2022-08-03T19:42:44.684Z,28.88
2022-08-03T19:45:15.432Z,28.77
2022-08-03T19:47:46.231Z,28.68
2022-08-03T19:50:14.581Z,28.58
2022-08-03T19:52:46.745Z,28.49
2022-08-03T19:55:16.989Z,28.50
2022-08-03T19:57:49.186Z,28.46
2022-08-03T20:00:26.064Z,28.41
2022-08-03T20:02:54.631Z,28.36
2022-08-03T20:05:22.582Z,28.27
2022-08-03T20:07:50.783Z,28.23
2022-08-03T20:10:20.153Z,28.15
2022-08-03T20:12:49.721Z,28.05
2022-08-03T20:15:18.310Z,27.99
2022-08-03T20:17:58.947Z,27.86
2022-08-03T20:20:31.991Z,27.82
2022-08-03T20:23:06.924Z,27.80
2022-08-03T20:25:48.673Z,27.75
2022-08-03T20:28:49.790Z,27.71
2022-08-03T20:31:32.567Z,27.73
2022-08-03T20:34:05.403Z,27.70
2022-08-03T20:36:33.326Z,27.68
2022-08-03T20:39:00.979Z,27.61
2022-08-03T20:41:31.037Z,27.56
2022-08-03T20:44:00.914Z,27.50
2022-08-03T20:46:30.007Z,27.41
2022-08-03T20:49:23.049Z,27.36
2022-08-03T20:51:53.211Z,27.33
2022-08-03T20:54:29.821Z,27.31
2022-08-03T20:57:03.606Z,27.31
2022-08-03T20:59:50.613Z,27.30
2022-08-03T21:02:30.365Z,27.26
2022-08-03T21:05:03.371Z,27.20
2022-08-03T21:07:45.721Z,27.20
2022-08-03T21:10:31.077Z,27.13
2022-08-03T21:13:17.103Z,27.10
2022-08-03T21:16:06.232Z,27.08
2022-08-03T21:18:42.731Z,27.06
2022-08-03T21:21:13.881Z,27.05
2022-08-03T21:23:48.806Z,26.98
2022-08-03T21:26:19.812Z,26.92
2022-08-03T21:28:49.085Z,26.87
2022-08-03T21:31:22.356Z,26.80
2022-08-03T21:33:57.509Z,26.70
2022-08-03T21:36:28.524Z,26.66
2022-08-03T21:38:57.403Z,26.60
2022-08-03T21:41:27.530Z,26.58
2022-08-03T21:43:55.420Z,26.57
2022-08-03T21:46:24.018Z,26.59
2022-08-03T21:50:06.953Z,26.54
2022-08-03T21:51:50.435Z,26.26
2022-08-03T21:54:21.008Z,26.40
2022-08-03T21:56:54.613Z,26.39
2022-08-03T21:59:24.519Z,26.36
2022-08-03T22:01:55.209Z,26.35
2022-08-03T22:04:55.248Z,26.27
2022-08-03T22:07:14.190Z,26.22
2022-08-03T22:09:51.321Z,26.19
2022-08-03T22:12:24.622Z,26.12
2022-08-03T22:15:00.809Z,26.07
2022-08-03T22:17:55.263Z,26.02
2022-08-03T22:20:19.908Z,25.89
2022-08-03T22:22:55.588Z,25.79
2022-08-03T22:25:30.534Z,25.71
2022-08-03T22:28:00.785Z,25.69
2022-08-03T22:30:29.196Z,25.68
2022-08-03T22:32:57.893Z,25.65
2022-08-03T22:35:27.053Z,25.59
2022-08-03T22:37:58.856Z,25.56
2022-08-03T22:40:27.825Z,25.49
2022-08-03T22:42:56.558Z,25.41
2022-08-03T22:46:07.647Z,25.35
2022-08-03T22:48:13.561Z,25.26
2022-08-03T22:50:45.262Z,25.24
2022-08-03T22:53:21.161Z,25.15
2022-08-03T22:55:52.433Z,25.08
2022-08-03T22:58:23.058Z,25.05
2022-08-03T23:01:04.407Z,25.03
2022-08-03T23:03:59.804Z,25.02
2022-08-03T23:06:26.309Z,24.96
2022-08-03T23:08:55.485Z,24.92
2022-08-03T23:11:25.613Z,24.90
2022-08-03T23:13:56.810Z,24.88
2022-08-03T23:16:28.614Z,24.85
2022-08-03T23:18:58.873Z,24.84
2022-08-03T23:22:00.723Z,24.80
2022-08-03T23:24:29.537Z,24.76
2022-08-03T23:26:58.502Z,24.74
2022-08-03T23:29:28.845Z,24.73
2022-08-03T23:31:58.497Z,24.70
2022-08-03T23:34:46.068Z,24.63
2022-08-03T23:37:18.361Z,24.59
2022-08-03T23:39:47.704Z,24.55
2022-08-03T23:42:20.014Z,24.53
2022-08-03T23:44:52.915Z,24.48
2022-08-03T23:47:20.596Z,24.41
2022-08-03T23:49:48.331Z,24.41
2022-08-03T23:52:22.340Z,24.36
2022-08-03T23:55:13.120Z,24.30
2022-08-03T23:58:05.316Z,24.25
